createdAt,value
2023-07-25T00:02:02.314Z,96070.78
2023-07-25T00:04:29.021Z,96065.69
2023-07-25T00:06:55.802Z,96073.31
2023-07-25T00:09:22.492Z,96069.69
2023-07-25T00:11:49.231Z,96066.06
2023-07-25T00:14:15.925Z,96049.38
2023-07-25T00:16:44.000Z,96042.00
2023-07-25T00:19:10.706Z,96047.22
2023-07-25T00:21:37.426Z,96051.97
2023-07-25T00:24:04.743Z,96053.13
2023-07-25T00:26:31.868Z,96054.59
2023-07-25T00:28:58.629Z,96072.63
2023-07-25T00:31:25.415Z,96064.94
2023-07-25T00:33:53.487Z,96055.97
2023-07-25T00:36:20.242Z,96061.06
2023-07-25T00:38:46.965Z,96066.59
2023-07-25T00:41:13.758Z,96058.28
2023-07-25T00:43:40.544Z,96063.09
2023-07-25T00:46:07.495Z,96074.44
2023-07-25T00:48:34.270Z,96067.09
2023-07-25T00:51:03.090Z,96075.31
2023-07-25T00:53:29.845Z,96082.28
2023-07-25T00:55:56.569Z,96092.22
2023-07-25T00:58:23.364Z,96077.66
2023-07-25T01:00:50.091Z,96083.72
2023-07-25T01:03:16.923Z,96082.53
2023-07-25T01:05:45.443Z,96091.63
2023-07-25T01:08:13.510Z,96080.69
2023-07-25T01:10:40.277Z,96077.06
2023-07-25T01:13:07.030Z,96078.72
2023-07-25T01:15:33.814Z,96071.88
2023-07-25T01:18:00.666Z,96083.53
2023-07-25T01:20:27.444Z,96083.50
2023-07-25T01:22:54.319Z,96073.34
2023-07-25T01:25:22.345Z,96082.88
2023-07-25T01:27:49.040Z,96078.91
2023-07-25T01:30:15.769Z,96083.19
2023-07-25T01:32:42.523Z,96074.53
2023-07-25T01:35:09.296Z,96066.66
2023-07-25T01:37:35.998Z,96072.53
2023-07-25T01:40:02.799Z,96077.00
2023-07-25T01:42:30.905Z,96071.03
2023-07-25T01:44:57.834Z,96046.97
2023-07-25T01:47:24.848Z,96049.16
2023-07-25T01:49:51.617Z,96044.28
2023-07-25T01:52:18.391Z,96034.31
2023-07-25T01:54:45.093Z,96039.44
2023-07-25T01:57:12.230Z,96041.47
2023-07-25T01:59:40.377Z,96041.31
2023-07-25T02:02:07.085Z,96038.56
2023-07-25T02:04:33.850Z,96035.09
2023-07-25T02:07:00.555Z,96031.13
2023-07-25T02:09:27.292Z,96030.72
2023-07-25T02:11:54.199Z,96014.25
2023-07-25T02:14:20.958Z,96015.38
2023-07-25T02:16:49.275Z,96023.31
2023-07-25T02:19:16.094Z,96016.50
2023-07-25T02:21:42.825Z,96007.00
2023-07-25T02:24:09.538Z,96005.91
2023-07-25T02:26:36.293Z,95998.28
2023-07-25T02:29:02.999Z,96004.97
2023-07-25T02:31:30.245Z,96009.47
2023-07-25T02:33:58.682Z,96008.94
2023-07-25T02:36:25.525Z,95996.97
2023-07-25T02:38:52.205Z,95989.28
2023-07-25T02:41:18.932Z,95996.72
2023-07-25T02:43:45.883Z,95986.88
2023-07-25T02:46:12.612Z,95991.84
2023-07-25T02:48:40.636Z,95987.41
2023-07-25T02:51:10.612Z,95989.47
2023-07-25T02:53:37.321Z,95992.59
2023-07-25T02:56:04.469Z,95992.91
2023-07-25T02:58:31.181Z,95991.91
2023-07-25T03:00:57.968Z,95996.88
2023-07-25T03:03:24.786Z,95991.84
2023-07-25T03:05:51.532Z,95993.91
2023-07-25T03:08:19.597Z,95986.63
2023-07-25T03:10:46.344Z,95988.53
2023-07-25T03:13:13.172Z,95986.56
2023-07-25T03:15:39.914Z,95981.97
2023-07-25T03:18:06.677Z,95982.97
2023-07-25T03:20:33.413Z,95978.78
2023-07-25T03:23:00.162Z,95981.06
2023-07-25T03:25:28.219Z,95982.69
2023-07-25T03:27:54.948Z,95983.91
2023-07-25T03:30:21.679Z,95995.22
2023-07-25T03:32:48.389Z,95999.34
2023-07-25T03:35:15.242Z,96001.84
2023-07-25T03:37:42.090Z,95999.88
2023-07-25T03:40:09.245Z,95995.91
2023-07-25T03:42:37.413Z,95996.81
2023-07-25T03:45:04.600Z,95985.88
2023-07-25T03:47:31.469Z,95979.63
2023-07-25T03:49:58.222Z,95978.53
2023-07-25T03:52:24.956Z,95969.88
2023-07-25T03:54:51.668Z,95969.00
2023-07-25T03:57:18.358Z,95979.00
2023-07-25T03:59:46.437Z,95977.28
2023-07-25T04:02:13.185Z,95973.22
2023-07-25T04:04:40.017Z,95989.66
2023-07-25T04:07:06.857Z,95981.09
2023-07-25T04:09:33.586Z,95987.19
2023-07-25T04:12:00.407Z,95986.28
2023-07-25T04:14:27.161Z,95987.22
2023-07-25T04:16:55.219Z,95994.16
2023-07-25T04:19:22.094Z,95994.84
2023-07-25T04:21:48.893Z,95996.69
2023-07-25T04:24:15.693Z,96011.94
2023-07-25T04:26:42.440Z,96005.13
2023-07-25T04:29:09.119Z,96005.00
2023-07-25T04:31:35.863Z,96015.53
2023-07-25T04:34:03.920Z,96012.03
2023-07-25T04:36:30.772Z,96010.75
2023-07-25T04:38:57.666Z,96008.66
2023-07-25T04:41:24.441Z,96013.16
2023-07-25T04:43:51.165Z,96019.22
2023-07-25T04:46:17.923Z,96018.00
2023-07-25T04:48:44.804Z,96021.66
2023-07-25T04:51:12.924Z,96023.75
2023-07-25T04:53:39.656Z,96017.84
2023-07-25T04:56:06.519Z,96026.53
2023-07-25T04:58:33.253Z,96022.22
2023-07-25T05:01:00.000Z,96021.66
2023-07-25T05:03:26.865Z,96026.69
2023-07-25T05:05:55.018Z,96032.13
2023-07-25T05:08:23.085Z,96028.47
2023-07-25T05:10:51.006Z,96032.28
2023-07-25T05:13:17.715Z,96039.13
2023-07-25T05:15:44.445Z,96039.63
2023-07-25T05:18:11.132Z,96035.75
2023-07-25T05:20:37.931Z,96035.44
2023-07-25T05:23:04.634Z,96037.38
2023-07-25T05:25:32.777Z,96043.44
2023-07-25T05:27:59.481Z,96040.72
2023-07-25T05:30:26.210Z,96037.34
2023-07-25T05:32:52.953Z,96038.66
2023-07-25T05:35:19.694Z,96048.03
2023-07-25T05:37:46.383Z,96038.72
2023-07-25T05:40:13.352Z,96041.13
2023-07-25T05:42:41.393Z,96035.94
2023-07-25T05:45:08.655Z,96043.38
2023-07-25T05:47:35.408Z,96038.84
2023-07-25T05:50:02.228Z,96048.34
2023-07-25T05:52:28.903Z,96050.41
2023-07-25T05:54:55.686Z,96055.63
2023-07-25T05:57:22.388Z,96059.16
2023-07-25T05:59:50.460Z,96069.63
2023-07-25T06:02:17.143Z,96056.50
2023-07-25T06:04:43.896Z,96070.56
2023-07-25T06:07:10.585Z,96072.91
2023-07-25T06:09:37.314Z,96068.41
2023-07-25T06:12:04.532Z,96061.47
2023-07-25T06:14:31.258Z,96057.19
2023-07-25T06:16:59.409Z,96060.59
2023-07-25T06:19:26.137Z,96059.81
2023-07-25T06:21:52.896Z,96055.34
2023-07-25T06:24:19.800Z,96057.81
2023-07-25T06:26:46.554Z,96065.81
2023-07-25T06:29:13.256Z,96067.63
2023-07-25T06:31:39.949Z,96066.72
2023-07-25T06:34:07.975Z,96058.75
2023-07-25T06:36:34.763Z,96071.50
2023-07-25T06:39:01.480Z,96064.66
2023-07-25T06:41:28.177Z,96064.31
2023-07-25T06:43:59.764Z,96060.69
2023-07-25T06:46:26.513Z,96062.09
2023-07-25T06:51:21.375Z,96054.41
2023-07-25T06:53:48.082Z,96047.09
2023-07-25T06:56:14.768Z,96051.38
2023-07-25T06:58:41.451Z,96051.88
2023-07-25T07:01:08.185Z,96054.06
2023-07-25T07:03:34.928Z,96048.69
2023-07-25T07:06:01.740Z,96052.88
2023-07-25T07:08:29.885Z,96054.00
2023-07-25T07:10:56.600Z,96048.75
2023-07-25T07:13:23.494Z,96044.72
2023-07-25T07:15:50.283Z,96036.66
2023-07-25T07:18:17.076Z,96037.28
2023-07-25T07:20:46.596Z,96033.91
2023-07-25T07:23:13.266Z,96034.84
2023-07-25T07:25:41.365Z,96040.16
2023-07-25T07:28:08.058Z,96039.97
2023-07-25T07:30:34.843Z,96036.34
2023-07-25T07:33:01.585Z,96043.06
2023-07-25T07:35:28.331Z,96041.91
2023-07-25T07:37:55.011Z,96054.75
2023-07-25T07:40:21.686Z,96036.31
2023-07-25T07:42:49.736Z,96037.78
2023-07-25T07:45:16.611Z,96040.38
2023-07-25T07:47:43.320Z,96039.81
2023-07-25T07:50:10.486Z,96026.97
2023-07-25T07:52:44.024Z,96039.94
2023-07-25T07:55:11.066Z,96045.69
2023-07-25T07:57:41.480Z,96035.69
2023-07-25T08:00:10.657Z,96028.41
2023-07-25T08:02:40.335Z,96029.03
2023-07-25T08:05:07.726Z,96033.34
2023-07-25T08:07:34.513Z,96038.03
2023-07-25T08:10:01.413Z,96040.81
2023-07-25T08:12:28.150Z,96051.13
2023-07-25T08:14:54.830Z,96046.44
2023-07-25T08:17:22.975Z,96057.63
2023-07-25T08:19:49.700Z,96054.66
2023-07-25T08:22:16.430Z,96045.78
2023-07-25T08:24:43.735Z,96054.09
2023-07-25T08:27:10.431Z,96053.69
2023-07-25T08:29:39.725Z,96058.00
2023-07-25T08:32:07.809Z,96048.72
2023-07-25T08:34:35.945Z,96053.97
2023-07-25T08:37:02.707Z,96055.03
2023-07-25T08:39:29.572Z,96049.56
2023-07-25T08:41:56.410Z,96058.63
2023-07-25T08:44:23.337Z,96058.50
2023-07-25T08:46:51.553Z,96052.47
2023-07-25T08:49:18.650Z,96056.84
2023-07-25T08:51:46.715Z,96062.41
2023-07-25T08:54:17.397Z,96067.34
2023-07-25T08:56:45.033Z,96067.56
2023-07-25T08:59:11.755Z,96082.56
2023-07-25T09:01:38.530Z,96083.06
2023-07-25T09:04:05.358Z,96088.13
2023-07-25T09:06:32.087Z,96090.72
2023-07-25T09:09:00.124Z,96093.31
2023-07-25T09:11:26.885Z,96102.22
2023-07-25T09:13:53.576Z,96096.38
2023-07-25T09:16:20.329Z,96100.91
2023-07-25T09:18:47.082Z,96093.09
2023-07-25T09:21:14.203Z,96098.06
2023-07-25T09:23:40.908Z,96114.28
2023-07-25T09:26:09.518Z,96105.97
2023-07-25T09:28:36.249Z,96108.44
2023-07-25T09:31:02.975Z,96105.75
2023-07-25T09:33:30.058Z,96117.56
2023-07-25T09:35:57.667Z,96114.69
2023-07-25T09:38:24.380Z,96108.78
2023-07-25T09:40:51.107Z,96132.75
2023-07-25T09:43:25.700Z,96120.47
2023-07-25T09:45:52.643Z,96116.16
2023-07-25T09:48:19.431Z,96121.56
2023-07-25T09:50:46.196Z,96111.69
2023-07-25T09:53:13.153Z,96110.19
2023-07-25T09:55:39.966Z,96117.47
2023-07-25T09:58:06.690Z,96122.81
2023-07-25T10:00:34.734Z,96118.16
2023-07-25T10:03:01.527Z,96122.22
2023-07-25T10:05:28.471Z,96116.56
2023-07-25T10:07:56.943Z,96134.59
2023-07-25T10:10:25.232Z,96122.38
2023-07-25T10:12:52.016Z,96132.13
2023-07-25T10:15:18.688Z,96125.41
2023-07-25T10:17:47.047Z,96126.84
2023-07-25T10:20:20.288Z,96133.72
2023-07-25T10:22:46.989Z,96132.22
2023-07-25T10:25:19.376Z,96130.28
2023-07-25T10:27:46.159Z,96127.88
2023-07-25T10:30:22.940Z,96120.97
2023-07-25T10:32:51.393Z,96121.00
2023-07-25T10:35:18.090Z,96133.28
2023-07-25T10:37:45.168Z,96135.22
2023-07-25T10:40:13.786Z,96117.69
2023-07-25T10:42:59.818Z,96132.97
2023-07-25T10:45:50.857Z,96117.72
2023-07-25T10:48:35.657Z,96124.97
2023-07-25T10:51:03.928Z,96122.75
2023-07-25T10:53:30.623Z,96117.66
2023-07-25T10:56:10.838Z,96111.19
2023-07-25T10:58:38.217Z,96113.56
2023-07-25T11:01:04.929Z,96123.97
2023-07-25T11:03:33.591Z,96124.25
2023-07-25T11:06:37.590Z,96136.41
2023-07-25T11:09:07.306Z,96132.56
2023-07-25T11:11:34.121Z,96130.50
2023-07-25T11:14:02.608Z,96125.22
2023-07-25T11:16:29.632Z,96127.69
2023-07-25T11:18:57.807Z,96124.50
2023-07-25T11:21:24.593Z,96122.31
2023-07-25T11:23:51.435Z,96116.13
2023-07-25T11:26:18.140Z,96124.75
2023-07-25T11:28:44.848Z,96119.25
2023-07-25T11:31:11.586Z,96124.06
2023-07-25T11:33:38.471Z,96130.16
2023-07-25T11:36:06.868Z,96128.81
2023-07-25T11:38:35.666Z,96126.13
2023-07-25T11:41:02.401Z,96131.72
2023-07-25T11:43:29.216Z,96125.31
2023-07-25T11:45:55.944Z,96128.88
2023-07-25T11:48:22.693Z,96137.00
2023-07-25T11:50:49.788Z,96139.91
2023-07-25T11:53:17.893Z,96135.59
2023-07-25T11:55:46.567Z,96147.72
2023-07-25T11:58:16.414Z,96136.09
2023-07-25T12:00:43.297Z,96150.63
2023-07-25T12:03:17.038Z,96146.13
2023-07-25T12:05:43.791Z,96138.66
2023-07-25T12:08:10.471Z,96147.91
2023-07-25T12:10:38.592Z,96147.72
2023-07-25T12:13:05.348Z,96148.69
2023-07-25T12:15:44.611Z,96134.31
2023-07-25T12:18:14.726Z,96124.59
2023-07-25T12:20:52.585Z,96136.25
2023-07-25T12:23:28.150Z,96147.09
2023-07-25T12:25:56.412Z,96168.84
2023-07-25T12:28:23.817Z,96166.97
2023-07-25T12:30:50.553Z,96149.84
2023-07-25T12:33:17.362Z,96147.41
2023-07-25T12:35:44.118Z,96155.66
2023-07-25T12:38:10.792Z,96152.97
2023-07-25T12:40:37.546Z,96167.75
2023-07-25T12:43:05.622Z,96161.13
2023-07-25T12:45:32.383Z,96165.53
2023-07-25T12:47:59.092Z,96168.09
2023-07-25T12:50:25.926Z,96172.59
2023-07-25T12:52:52.612Z,96166.53
2023-07-25T12:55:19.600Z,96174.03
2023-07-25T12:57:46.290Z,96177.72
2023-07-25T13:00:15.696Z,96177.59
2023-07-25T13:02:42.699Z,96178.53
2023-07-25T13:05:09.694Z,96174.53
2023-07-25T13:07:36.492Z,96174.88
2023-07-25T13:10:03.523Z,96176.94
2023-07-25T13:12:30.237Z,96184.13
2023-07-25T13:14:56.945Z,96178.34
2023-07-25T13:17:24.984Z,96177.72
2023-07-25T13:19:51.743Z,96186.94
2023-07-25T13:22:18.454Z,96176.03
2023-07-25T13:24:45.203Z,96177.41
2023-07-25T13:27:11.964Z,96187.72
2023-07-25T13:29:38.666Z,96169.47
2023-07-25T13:32:06.398Z,96173.22
2023-07-25T13:34:34.487Z,96185.88
2023-07-25T13:37:01.253Z,96172.22
2023-07-25T13:39:27.947Z,96169.72
2023-07-25T13:41:54.698Z,96172.19
2023-07-25T13:44:21.516Z,96170.44
2023-07-25T13:46:48.279Z,96186.09
2023-07-25T13:49:15.083Z,96166.13
2023-07-25T13:51:43.161Z,96159.84
2023-07-25T13:54:09.840Z,96155.81
2023-07-25T13:56:38.697Z,96168.69
2023-07-25T13:59:05.546Z,96168.22
2023-07-25T14:01:32.509Z,96161.63
2023-07-25T14:03:59.443Z,96171.47
2023-07-25T14:06:26.156Z,96161.91
2023-07-25T14:08:56.632Z,96163.44
2023-07-25T14:11:23.889Z,96156.13
2023-07-25T14:13:50.856Z,96160.38
2023-07-25T14:16:17.680Z,96168.53
2023-07-25T14:18:44.491Z,96158.94
2023-07-25T14:21:11.312Z,96154.28
2023-07-25T14:23:38.028Z,96153.00
2023-07-25T14:26:06.319Z,96156.41
2023-07-25T14:28:33.014Z,96163.66
2023-07-25T14:30:59.803Z,96151.56
2023-07-25T14:33:26.567Z,96152.78
2023-07-25T14:35:53.373Z,96151.31
2023-07-25T14:38:20.164Z,96150.94
2023-07-25T14:40:46.930Z,96156.97
2023-07-25T14:43:14.937Z,96162.66
2023-07-25T14:45:41.680Z,96157.53
2023-07-25T14:48:08.629Z,96154.94
2023-07-25T14:50:35.712Z,96164.47
2023-07-25T14:53:02.454Z,96161.53
2023-07-25T14:55:29.219Z,96165.50
2023-07-25T14:57:55.912Z,96166.63
2023-07-25T15:00:24.028Z,96166.50
2023-07-25T15:02:50.796Z,96160.84
2023-07-25T15:05:17.544Z,96163.84
2023-07-25T15:07:44.258Z,96180.81
2023-07-25T15:10:11.103Z,96169.75
2023-07-25T15:12:37.851Z,96175.06
2023-07-25T15:15:06.796Z,96181.44
2023-07-25T15:17:35.007Z,96177.16
2023-07-25T15:20:03.016Z,96175.28
2023-07-25T15:22:29.843Z,96178.31
2023-07-25T15:24:56.630Z,96168.22
2023-07-25T15:27:23.500Z,96174.19
2023-07-25T15:29:50.434Z,96176.41
2023-07-25T15:32:17.173Z,96166.97
2023-07-25T15:34:45.293Z,96176.66
2023-07-25T15:37:12.084Z,96172.09
2023-07-25T15:39:38.797Z,96179.22
2023-07-25T15:42:06.041Z,96174.34
2023-07-25T15:44:33.076Z,96187.97
2023-07-25T15:47:00.812Z,96188.00
2023-07-25T15:49:27.546Z,96167.56
2023-07-25T15:51:56.239Z,96179.00
2023-07-25T15:54:23.173Z,96179.47
2023-07-25T15:56:49.894Z,96194.91
2023-07-25T15:59:16.812Z,96188.88
2023-07-25T16:01:43.574Z,96183.69
2023-07-25T16:04:10.257Z,96187.44
2023-07-25T16:06:36.993Z,96183.91
2023-07-25T16:09:05.125Z,96190.03
2023-07-25T16:11:32.051Z,96185.03
2023-07-25T16:13:58.888Z,96185.28
2023-07-25T16:16:25.649Z,96187.72
2023-07-25T16:18:52.328Z,96203.75
2023-07-25T16:21:19.045Z,96206.09
2023-07-25T16:23:45.767Z,96215.44
2023-07-25T16:26:13.820Z,96212.00
2023-07-25T16:28:40.502Z,96220.47
2023-07-25T16:31:29.085Z,96220.00
2023-07-25T16:33:53.909Z,96224.28
2023-07-25T16:36:20.625Z,96223.94
2023-07-25T16:38:47.322Z,96222.69
2023-07-25T16:41:15.390Z,96225.13
2023-07-25T16:43:42.142Z,96248.13
2023-07-25T16:46:08.827Z,96287.81
2023-07-25T16:48:35.558Z,96276.44
2023-07-25T16:51:02.263Z,96335.97
2023-07-25T16:53:28.955Z,96324.13
2023-07-25T16:55:55.666Z,96327.78
2023-07-25T16:58:23.832Z,96317.72
2023-07-25T17:00:50.692Z,96326.56
2023-07-25T17:03:17.493Z,96315.97
2023-07-25T17:05:44.457Z,96326.38
2023-07-25T17:08:11.202Z,96340.09
2023-07-25T17:10:37.926Z,96336.00
2023-07-25T17:13:04.582Z,96343.50
2023-07-25T17:15:32.626Z,96346.41
2023-07-25T17:17:59.338Z,96359.44
2023-07-25T17:20:26.078Z,96358.69
2023-07-25T17:22:52.819Z,96367.06
2023-07-25T17:25:19.560Z,96385.16
2023-07-25T17:27:46.249Z,96382.22
2023-07-25T17:30:12.975Z,96393.88
2023-07-25T17:32:41.101Z,96404.06
2023-07-25T17:35:09.655Z,96407.50
2023-07-25T17:37:37.951Z,96398.00
2023-07-25T17:40:06.338Z,96394.75
2023-07-25T17:42:33.131Z,96399.06
2023-07-25T17:44:59.819Z,96402.59
2023-07-25T17:47:26.520Z,96409.97
2023-07-25T17:49:54.610Z,96404.72
2023-07-25T17:52:21.325Z,96410.31
2023-07-25T17:54:48.008Z,96408.53
2023-07-25T17:57:14.717Z,96408.22
2023-07-25T17:59:41.401Z,96423.25
2023-07-25T18:02:08.135Z,96425.81
2023-07-25T18:04:34.797Z,96426.91
2023-07-25T18:07:02.902Z,96432.34
2023-07-25T18:09:29.555Z,96433.63
2023-07-25T18:11:57.578Z,96432.81
2023-07-25T18:14:24.266Z,96434.44
2023-07-25T18:16:50.930Z,96439.06
2023-07-25T18:19:17.619Z,96442.25
2023-07-25T18:21:44.299Z,96443.06
2023-07-25T18:24:12.358Z,96459.34
2023-07-25T18:26:39.330Z,96467.50
2023-07-25T18:29:06.080Z,96471.81
2023-07-25T18:31:32.998Z,96467.00
2023-07-25T18:33:59.937Z,96474.34
2023-07-25T18:36:26.726Z,96475.59
2023-07-25T18:38:53.500Z,96475.59
2023-07-25T18:41:21.514Z,96485.66
2023-07-25T18:43:48.194Z,96487.91
2023-07-25T18:46:14.924Z,96485.97
2023-07-25T18:48:41.680Z,96494.13
2023-07-25T18:51:08.390Z,96494.13
2023-07-25T18:53:35.081Z,96502.09
2023-07-25T18:56:01.776Z,96498.44
2023-07-25T18:58:29.826Z,96501.63
2023-07-25T19:00:56.556Z,96501.94
2023-07-25T19:03:23.370Z,96511.69
2023-07-25T19:05:51.785Z,96512.19
2023-07-25T19:08:18.545Z,96526.38
2023-07-25T19:10:45.209Z,96519.66
2023-07-25T19:13:11.898Z,96516.78
2023-07-25T19:15:39.934Z,96515.34
2023-07-25T19:18:06.736Z,96515.53
2023-07-25T19:20:33.449Z,96523.19
2023-07-25T19:23:07.862Z,96522.69
2023-07-25T19:25:42.179Z,96527.16
2023-07-25T19:28:08.848Z,96516.25
2023-07-25T19:30:37.495Z,96541.63
2023-07-25T19:33:05.583Z,96543.53
2023-07-25T19:35:32.299Z,96549.16
2023-07-25T19:37:58.980Z,96552.34
2023-07-25T19:40:25.709Z,96556.66
2023-07-25T19:42:52.415Z,96558.56
2023-07-25T19:45:19.234Z,96557.59
2023-07-25T19:47:45.940Z,96572.75
2023-07-25T19:50:14.056Z,96573.06
2023-07-25T19:52:40.761Z,96580.09
2023-07-25T19:55:08.289Z,96587.94
2023-07-25T19:57:35.125Z,96585.94
2023-07-25T20:00:01.849Z,96589.44
2023-07-25T20:02:28.588Z,96587.47
2023-07-25T20:04:55.374Z,96596.19
2023-07-25T20:07:23.373Z,96593.34
2023-07-25T20:09:50.072Z,96595.81
2023-07-25T20:12:16.771Z,96597.91
2023-07-25T20:14:43.473Z,96596.97
2023-07-25T20:17:10.170Z,96603.84
2023-07-25T20:19:36.889Z,96605.94
2023-07-25T20:22:03.650Z,96611.06
2023-07-25T20:24:31.736Z,96607.06
2023-07-25T20:26:58.478Z,96616.69
2023-07-25T20:29:25.251Z,96622.53
2023-07-25T20:31:51.979Z,96630.56
2023-07-25T20:34:18.646Z,96626.38
2023-07-25T20:36:45.398Z,96630.41
2023-07-25T20:39:12.099Z,96631.34
2023-07-25T20:41:40.147Z,96635.88
2023-07-25T20:44:06.852Z,96647.22
2023-07-25T20:46:33.952Z,96641.09
2023-07-25T20:49:00.834Z,96655.72
2023-07-25T20:51:27.579Z,96649.94
2023-07-25T20:53:54.241Z,96645.22
2023-07-25T20:56:20.929Z,96651.66
2023-07-25T20:58:49.083Z,96652.56
2023-07-25T21:01:15.819Z,96647.50
2023-07-25T21:03:42.656Z,96655.53
2023-07-25T21:06:09.379Z,96656.44
2023-07-25T21:08:36.126Z,96658.84
2023-07-25T21:11:02.810Z,96668.81
2023-07-25T21:13:29.520Z,96667.16
2023-07-25T21:15:57.582Z,96672.47
2023-07-25T21:18:24.377Z,96679.59
2023-07-25T21:20:51.149Z,96672.84
2023-07-25T21:23:17.837Z,96674.41
2023-07-25T21:25:44.517Z,96666.63
2023-07-25T21:28:11.224Z,96669.59
2023-07-25T21:30:37.909Z,96673.47
2023-07-25T21:33:06.014Z,96675.84
2023-07-25T21:35:32.780Z,96676.25
2023-07-25T21:37:59.453Z,96677.03
2023-07-25T21:40:26.337Z,96673.59
2023-07-25T21:42:53.049Z,96680.47
2023-07-25T21:45:19.831Z,96680.47
2023-07-25T21:47:46.552Z,96674.47
2023-07-25T21:50:14.585Z,96674.69
2023-07-25T21:52:41.305Z,96684.34
2023-07-25T21:55:08.381Z,96681.34
2023-07-25T21:57:35.053Z,96684.78
2023-07-25T22:00:02.049Z,96688.38
2023-07-25T22:02:38.910Z,96685.72
2023-07-25T22:05:06.777Z,96690.34
2023-07-25T22:07:34.801Z,96688.47
2023-07-25T22:10:01.534Z,96690.38
2023-07-25T22:12:28.270Z,96694.38
2023-07-25T22:14:54.967Z,96694.97
2023-07-25T22:17:21.747Z,96690.38
2023-07-25T22:19:48.484Z,96690.22
2023-07-25T22:22:15.198Z,96689.94
2023-07-25T22:24:43.255Z,96692.78
2023-07-25T22:27:09.980Z,96686.22
2023-07-25T22:29:36.903Z,96690.47
2023-07-25T22:32:04.129Z,96690.63
2023-07-25T22:34:30.845Z,96690.91
2023-07-25T22:36:57.577Z,96700.34
2023-07-25T22:39:24.253Z,96691.53
2023-07-25T22:41:52.417Z,96696.19
2023-07-25T22:44:19.102Z,96695.91
2023-07-25T22:46:45.786Z,96701.81
2023-07-25T22:49:12.453Z,96703.19
2023-07-25T22:51:39.294Z,96705.69
2023-07-25T22:54:05.977Z,96710.31
2023-07-25T22:56:33.006Z,96708.84
2023-07-25T22:59:02.926Z,96719.16
2023-07-25T23:01:31.899Z,96716.56
2023-07-25T23:03:58.615Z,96720.50
2023-07-25T23:06:25.295Z,96725.09
2023-07-25T23:08:52.011Z,96731.03
2023-07-25T23:11:18.693Z,96731.81
2023-07-25T23:13:45.416Z,96742.66
2023-07-25T23:16:13.535Z,96741.25
2023-07-25T23:18:40.271Z,96740.25
2023-07-25T23:21:06.980Z,96738.84
2023-07-25T23:23:33.682Z,96739.06
2023-07-25T23:26:00.402Z,96744.25
2023-07-25T23:28:27.139Z,96738.75
2023-07-25T23:30:53.931Z,96740.97
2023-07-25T23:33:23.134Z,96744.75
2023-07-25T23:35:49.827Z,96748.06
2023-07-25T23:38:16.577Z,96751.06
2023-07-25T23:40:43.260Z,96755.97
2023-07-25T23:43:09.977Z,96750.56
2023-07-25T23:45:36.639Z,96760.28
2023-07-25T23:48:03.667Z,96764.41
2023-07-25T23:50:31.836Z,96767.31
2023-07-25T23:52:58.571Z,96764.69
2023-07-25T23:55:26.341Z,96771.28
2023-07-25T23:57:53.003Z,96763.75
